EIN477 LDDU-EIDW
Flight info
| Callsign | EIN477 |
|---|---|
| Flight time | N/A |
| Altitude | 36000 |
| Route | AMUGO DCT SPL DCT MONFA DCT SOTOV DCT XEBIX DCT USUDO DCT LIRSU DCT SPI DCT DENUT L610 KOPUL DCT SABER DCT SIVDA DCT RODOL UL28 LELDO M145 BAGSO BAGSO3R |
| Aircraft | A320/M-SDE3FGHIRWY/LB1 |
Departure
| Time | N/A |
|---|---|
| Airport | Dubrovnik Ruđer Bošković Airport (LDDU) |
Arrival
| Time | 2026-05-04 18:36 |
|---|---|
| Airport | Dublin Airport (EIDW) |
| Time | Latitude | Longitude | Altitude | Speed | Heading |
|---|---|---|---|---|---|
| 2026-05-04 17:52 | 52.31453 | 0.08930 | 36036 ft | 438 kts | 317° |
| 2026-05-04 17:52 | 52.33741 | 0.05634 | 36041 ft | 438 kts | 317° |
| 2026-05-04 17:53 | 52.37842 | -0.01653 | 36063 ft | 435 kts | 307° |
| 2026-05-04 17:53 | 52.41566 | -0.09386 | 36051 ft | 436 kts | 307° |
| 2026-05-04 17:54 | 52.45314 | -0.17186 | 36052 ft | 436 kts | 307° |
| 2026-05-04 17:54 | 52.49091 | -0.25055 | 36054 ft | 436 kts | 307° |
| 2026-05-04 17:55 | 52.52808 | -0.32829 | 36055 ft | 436 kts | 307° |
| 2026-05-04 17:55 | 52.56542 | -0.40671 | 36058 ft | 436 kts | 307° |
| 2026-05-04 17:56 | 52.60273 | -0.48536 | 36061 ft | 436 kts | 307° |
| 2026-05-04 17:56 | 52.63999 | -0.56413 | 36065 ft | 436 kts | 307° |
| 2026-05-04 17:57 | 52.67703 | -0.64251 | 36062 ft | 436 kts | 307° |
| 2026-05-04 17:57 | 52.71421 | -0.72138 | 36060 ft | 436 kts | 307° |
| 2026-05-04 17:58 | 52.75132 | -0.80048 | 36061 ft | 436 kts | 307° |
| 2026-05-04 17:58 | 52.78830 | -0.87974 | 36056 ft | 436 kts | 307° |
| 2026-05-04 17:59 | 52.82524 | -0.95900 | 36052 ft | 436 kts | 307° |
| 2026-05-04 18:00 | 52.88018 | -1.07738 | 36050 ft | 437 kts | 307° |
| 2026-05-04 18:00 | 52.91692 | -1.15686 | 36045 ft | 438 kts | 307° |
| 2026-05-04 18:01 | 52.95392 | -1.23702 | 36050 ft | 438 kts | 307° |
| 2026-05-04 18:01 | 52.99113 | -1.31784 | 36050 ft | 438 kts | 307° |
| 2026-05-04 18:02 | 53.04624 | -1.43804 | 36051 ft | 438 kts | 308° |
| 2026-05-04 18:02 | 53.08296 | -1.51877 | 36054 ft | 438 kts | 307° |
| 2026-05-04 18:03 | 53.11964 | -1.59970 | 36052 ft | 438 kts | 308° |
| 2026-05-04 18:03 | 53.15632 | -1.68067 | 36050 ft | 438 kts | 308° |
| 2026-05-04 18:04 | 53.19304 | -1.76189 | 36052 ft | 439 kts | 308° |
| 2026-05-04 18:05 | 53.24558 | -1.88681 | 36050 ft | 440 kts | 297° |
| 2026-05-04 18:05 | 53.27285 | -1.97818 | 36060 ft | 439 kts | 297° |
| 2026-05-04 18:06 | 53.31364 | -2.11518 | 36054 ft | 439 kts | 297° |
| 2026-05-04 18:06 | 53.34066 | -2.20673 | 36055 ft | 439 kts | 297° |
| 2026-05-04 18:07 | 53.36447 | -2.30060 | 36055 ft | 440 kts | 289° |
| 2026-05-04 18:07 | 53.38300 | -2.39814 | 36051 ft | 439 kts | 289° |
| 2026-05-04 18:08 | 53.40153 | -2.49569 | 36054 ft | 439 kts | 289° |
| 2026-05-04 18:08 | 53.42001 | -2.59330 | 36050 ft | 439 kts | 289° |
| 2026-05-04 18:09 | 53.45678 | -2.78897 | 36056 ft | 440 kts | 289° |
| 2026-05-04 18:10 | 53.47493 | -2.88699 | 36056 ft | 440 kts | 289° |
| 2026-05-04 18:10 | 53.49301 | -2.98503 | 36058 ft | 440 kts | 288° |
| 2026-05-04 18:11 | 53.51113 | -3.08311 | 36059 ft | 440 kts | 289° |
| 2026-05-04 18:11 | 53.52917 | -3.18143 | 36067 ft | 440 kts | 288° |
| 2026-05-04 18:12 | 53.54703 | -3.27968 | 36074 ft | 440 kts | 288° |
| 2026-05-04 18:12 | 53.56482 | -3.37815 | 36083 ft | 440 kts | 288° |
| 2026-05-04 18:13 | 53.58245 | -3.47595 | 36083 ft | 440 kts | 288° |
| 2026-05-04 18:14 | 53.60889 | -3.62370 | 35924 ft | 440 kts | 288° |
| 2026-05-04 18:14 | 53.61820 | -3.67279 | 35665 ft | 438 kts | 293° |
| 2026-05-04 18:14 | 53.62957 | -3.72019 | 35395 ft | 435 kts | 294° |
| 2026-05-04 18:15 | 53.65214 | -3.81404 | 34383 ft | 429 kts | 294° |
| 2026-05-04 18:15 | 53.67430 | -3.90683 | 33332 ft | 423 kts | 294° |
| 2026-05-04 18:15 | 53.68519 | -3.95268 | 32822 ft | 419 kts | 294° |
| 2026-05-04 18:16 | 53.69596 | -3.99815 | 32335 ft | 415 kts | 294° |
| 2026-05-04 18:16 | 53.70658 | -4.04318 | 31859 ft | 412 kts | 293° |
| 2026-05-04 18:16 | 53.71496 | -4.08921 | 31375 ft | 411 kts | 283° |
| 2026-05-04 18:17 | 53.71979 | -4.16934 | 30581 ft | 408 kts | 275° |
| 2026-05-04 18:17 | 53.72156 | -4.21692 | 30123 ft | 405 kts | 276° |
| 2026-05-04 18:17 | 53.72507 | -4.31083 | 29202 ft | 396 kts | 275° |
| 2026-05-04 18:18 | 53.72678 | -4.35689 | 28782 ft | 392 kts | 275° |
| 2026-05-04 18:18 | 53.72844 | -4.40263 | 28362 ft | 388 kts | 275° |
| 2026-05-04 18:18 | 53.73008 | -4.44783 | 27944 ft | 384 kts | 275° |
| 2026-05-04 18:18 | 53.73169 | -4.49264 | 27529 ft | 380 kts | 275° |
| 2026-05-04 18:19 | 53.73488 | -4.58205 | 25852 ft | 385 kts | 275° |
| 2026-05-04 18:19 | 53.73647 | -4.62717 | 24861 ft | 386 kts | 274° |
| 2026-05-04 18:19 | 53.73803 | -4.67251 | 23891 ft | 387 kts | 274° |
| 2026-05-04 18:20 | 53.73953 | -4.71779 | 22901 ft | 384 kts | 274° |
| 2026-05-04 18:20 | 53.74093 | -4.76183 | 22085 ft | 378 kts | 274° |
| 2026-05-04 18:20 | 53.74233 | -4.80587 | 21248 ft | 372 kts | 274° |
| 2026-05-04 18:20 | 53.74372 | -4.84921 | 20428 ft | 367 kts | 275° |
| 2026-05-04 18:21 | 53.74513 | -4.89190 | 19654 ft | 362 kts | 275° |
| 2026-05-04 18:21 | 53.74653 | -4.93399 | 18904 ft | 356 kts | 274° |
| 2026-05-04 18:21 | 53.74788 | -4.97549 | 18141 ft | 351 kts | 274° |
| 2026-05-04 18:21 | 53.74920 | -5.01636 | 17330 ft | 346 kts | 274° |
| 2026-05-04 18:22 | 53.75047 | -5.05668 | 16557 ft | 341 kts | 274° |
| 2026-05-04 18:22 | 53.75172 | -5.09633 | 15806 ft | 336 kts | 274° |
| 2026-05-04 18:22 | 53.75172 | -5.13541 | 15096 ft | 330 kts | 263° |
| 2026-05-04 18:22 | 53.74662 | -5.17281 | 14390 ft | 325 kts | 252° |
| 2026-05-04 18:23 | 53.73933 | -5.20879 | 13652 ft | 322 kts | 251° |
| 2026-05-04 18:23 | 53.73214 | -5.24418 | 13019 ft | 313 kts | 251° |
| 2026-05-04 18:23 | 53.72521 | -5.27822 | 12651 ft | 303 kts | 251° |
| 2026-05-04 18:23 | 53.71836 | -5.31177 | 12276 ft | 301 kts | 251° |
| 2026-05-04 18:24 | 53.71155 | -5.34509 | 11903 ft | 300 kts | 252° |
| 2026-05-04 18:24 | 53.70478 | -5.37826 | 11519 ft | 298 kts | 251° |
| 2026-05-04 18:24 | 53.69804 | -5.41125 | 11137 ft | 297 kts | 252° |
| 2026-05-04 18:24 | 53.69134 | -5.44407 | 10754 ft | 295 kts | 252° |
| 2026-05-04 18:25 | 53.68469 | -5.47680 | 10367 ft | 294 kts | 253° |
| 2026-05-04 18:25 | 53.68071 | -5.51041 | 9991 ft | 291 kts | 268° |
| 2026-05-04 18:25 | 53.68115 | -5.54402 | 9715 ft | 284 kts | 274° |
| 2026-05-04 18:25 | 53.68206 | -5.57703 | 9440 ft | 280 kts | 273° |
| 2026-05-04 18:26 | 53.68291 | -5.60970 | 9166 ft | 278 kts | 273° |
| 2026-05-04 18:26 | 53.68160 | -5.64203 | 8904 ft | 277 kts | 258° |
| 2026-05-04 18:26 | 53.67504 | -5.67246 | 8637 ft | 277 kts | 243° |
| 2026-05-04 18:26 | 53.66379 | -5.69871 | 8370 ft | 276 kts | 230° |
| 2026-05-04 18:27 | 53.65128 | -5.72235 | 8221 ft | 264 kts | 230° |
| 2026-05-04 18:27 | 53.63935 | -5.74496 | 8097 ft | 252 kts | 230° |
| 2026-05-04 18:27 | 53.62659 | -5.76401 | 7903 ft | 246 kts | 213° |
| 2026-05-04 18:27 | 53.61121 | -5.77611 | 7708 ft | 245 kts | 201° |
| 2026-05-04 18:28 | 53.59513 | -5.78559 | 7408 ft | 244 kts | 201° |
| 2026-05-04 18:28 | 53.57916 | -5.79501 | 7096 ft | 242 kts | 201° |
| 2026-05-04 18:28 | 53.56335 | -5.80434 | 6782 ft | 240 kts | 201° |
| 2026-05-04 18:28 | 53.54759 | -5.81362 | 6470 ft | 239 kts | 201° |
| 2026-05-04 18:29 | 53.53197 | -5.82280 | 6134 ft | 237 kts | 201° |
| 2026-05-04 18:29 | 53.51648 | -5.83187 | 5824 ft | 237 kts | 202° |
| 2026-05-04 18:29 | 53.50096 | -5.84096 | 5518 ft | 236 kts | 202° |
| 2026-05-04 18:29 | 53.48547 | -5.85005 | 5210 ft | 236 kts | 202° |
| 2026-05-04 18:30 | 53.45448 | -5.86824 | 4522 ft | 236 kts | 202° |
| 2026-05-04 18:30 | 53.43900 | -5.87733 | 4206 ft | 236 kts | 202° |
| 2026-05-04 18:30 | 53.42370 | -5.88655 | 3893 ft | 236 kts | 207° |
| 2026-05-04 18:31 | 53.41076 | -5.90287 | 3584 ft | 227 kts | 235° |
| 2026-05-04 18:31 | 53.40406 | -5.92555 | 3340 ft | 216 kts | 262° |
| 2026-05-04 18:31 | 53.40356 | -5.94976 | 3277 ft | 199 kts | 279° |
| 2026-05-04 18:31 | 53.40485 | -5.97211 | 3191 ft | 192 kts | 279° |
| 2026-05-04 18:32 | 53.40599 | -5.99355 | 3131 ft | 179 kts | 279° |
| 2026-05-04 18:32 | 53.40704 | -6.01363 | 3023 ft | 167 kts | 279° |
| 2026-05-04 18:32 | 53.40805 | -6.03247 | 2869 ft | 160 kts | 280° |
| 2026-05-04 18:32 | 53.40909 | -6.05084 | 2642 ft | 157 kts | 280° |
| 2026-05-04 18:33 | 53.41012 | -6.06891 | 2431 ft | 154 kts | 280° |
| 2026-05-04 18:33 | 53.41111 | -6.08664 | 2223 ft | 151 kts | 279° |
| 2026-05-04 18:33 | 53.41206 | -6.10388 | 2028 ft | 147 kts | 279° |
| 2026-05-04 18:33 | 53.41298 | -6.12045 | 1828 ft | 142 kts | 279° |
| 2026-05-04 18:34 | 53.41389 | -6.13676 | 1665 ft | 139 kts | 279° |
| 2026-05-04 18:34 | 53.41479 | -6.15281 | 1477 ft | 138 kts | 279° |
| 2026-05-04 18:34 | 53.41567 | -6.16884 | 1290 ft | 139 kts | 279° |
| 2026-05-04 18:34 | 53.41658 | -6.18494 | 1107 ft | 139 kts | 279° |
| 2026-05-04 18:35 | 53.41750 | -6.20111 | 919 ft | 140 kts | 277° |
| 2026-05-04 18:35 | 53.41844 | -6.21747 | 747 ft | 142 kts | 276° |
| 2026-05-04 18:35 | 53.41935 | -6.23423 | 568 ft | 147 kts | 275° |
| 2026-05-04 18:35 | 53.42028 | -6.25115 | 332 ft | 145 kts | 275° |
| 2026-05-04 18:36 | 53.42118 | -6.26744 | 213 ft | 129 kts | 275° |
| 2026-05-04 18:36 | 53.42181 | -6.27862 | 212 ft | 52 kts | 276° |
| 2026-05-04 18:36 | 53.42241 | -6.28219 | 213 ft | 27 kts | 304° |
| 2026-05-04 18:36 | 53.42352 | -6.28308 | 215 ft | 16 kts | 29° |
| 2026-05-04 18:37 | 53.42365 | -6.28137 | 221 ft | 16 kts | 92° |
| 2026-05-04 18:37 | 53.42356 | -6.27936 | 211 ft | 18 kts | 96° |
| 2026-05-04 18:37 | 53.42344 | -6.27711 | 211 ft | 21 kts | 95° |
| 2026-05-04 18:37 | 53.42330 | -6.27459 | 211 ft | 23 kts | 95° |
| 2026-05-04 18:38 | 53.42314 | -6.27185 | 211 ft | 24 kts | 95° |
| 2026-05-04 18:38 | 53.42299 | -6.26891 | 211 ft | 26 kts | 95° |
| 2026-05-04 18:38 | 53.42280 | -6.26578 | 211 ft | 28 kts | 96° |
| 2026-05-04 18:38 | 53.42264 | -6.26267 | 211 ft | 25 kts | 95° |
| 2026-05-04 18:39 | 53.42248 | -6.25972 | 214 ft | 25 kts | 95° |
| 2026-05-04 18:39 | 53.42231 | -6.25670 | 211 ft | 27 kts | 95° |
| 2026-05-04 18:39 | 53.42214 | -6.25357 | 211 ft | 26 kts | 95° |
| 2026-05-04 18:39 | 53.42198 | -6.25057 | 211 ft | 26 kts | 95° |
| 2026-05-04 18:40 | 53.42183 | -6.24774 | 211 ft | 24 kts | 94° |
| 2026-05-04 18:40 | 53.42167 | -6.24483 | 211 ft | 26 kts | 95° |
| 2026-05-04 18:40 | 53.42170 | -6.24239 | 217 ft | 19 kts | 53° |
| 2026-05-04 18:40 | 53.42250 | -6.24101 | 211 ft | 15 kts | 62° |
| 2026-05-04 18:41 | 53.42229 | -6.23929 | 215 ft | 16 kts | 117° |
| 2026-05-04 18:41 | 53.42182 | -6.23794 | 211 ft | 12 kts | 128° |
| 2026-05-04 18:41 | 53.42189 | -6.23747 | 211 ft | 4 kts | 24° |
| 2026-05-04 18:41 | 53.42207 | -6.23732 | 218 ft | 1 kts | 27° |
| 2026-05-04 18:42 | 53.42211 | -6.23728 | 216 ft | 0 kts | 27° |
| 2026-05-04 18:42 | 53.42212 | -6.23728 | 216 ft | 0 kts | 27° |